Tunuyan, Argentina
Current Conditions -  °F | °C
As of 12:00 AM on Tuesday 27 Jan 2015 (Local Time) from SAME Reporting Station
Clear Clear  
Wind Chill: 77°   Ceiling: Unl
Heat Index: 79°   Visibility: 6mi
Dew Point: 59°   Wind: 0mph
Humidity: 54%   Direction: NA
Pressure: 29.83"   Gusts: NA
Location:  33.57°S, 69.02°W
Report Text: SAME 270300Z 00000KT CAVOK 25/15 Q1010
Loading
Personal Weather Stations






























Interactive Weather Map New forecast layout! Learn more

10-Day Weather Forecast

Advertisements
Track Severe Weather on mobile